Time;durP1;ratioP1;P1;durP2;ratioP2;P2;SDS_P1;SDS_P2;PMS_P1;PMS_P2;Temp;Humidity;BMP_temperature;BMP_pressure;BME280_temperature;BME280_humidity;BME280_pressure;Samples;Min_cycle;Max_cycle;Signal;HPM_P1;HPM_P2
2024/03/02 00:01:57;;;;;;;25.48;21.85;;;;;;;-146.18;100.00;67994.34;10347181;27;20098;-68
2024/03/02 00:06:56;;;;;;;27.35;20.70;;;;;;;-146.18;100.00;67994.34;10351296;27;20101;-68
2024/03/02 00:11:53;;;;;;;25.50;21.27;;;;;;;-146.18;100.00;67994.34;10351881;27;20044;-67
2024/03/02 00:16:51;;;;;;;27.60;21.92;;;;;;;-146.18;100.00;67994.34;10350756;27;20044;-67
2024/03/02 00:21:48;;;;;;;31.38;23.10;;;;;;;-146.18;100.00;67994.34;10344348;27;20644;-69
2024/03/02 00:26:45;;;;;;;30.23;22.90;;;;;;;-146.18;100.00;67994.34;10348277;27;20055;-67
2024/03/02 00:31:42;;;;;;;30.83;23.02;;;;;;;-146.18;100.00;67994.34;10351536;27;20044;-68
2024/03/02 00:36:39;;;;;;;39.42;24.65;;;;;;;-146.18;100.00;67994.34;10355094;27;20048;-70
2024/03/02 00:41:36;;;;;;;38.88;24.17;;;;;;;-146.18;100.00;67994.34;10349251;27;20048;-68
2024/03/02 00:46:40;;;;;;;32.60;24.52;;;;;;;-146.18;100.00;67994.34;10339915;27;20047;-69
2024/03/02 00:51:36;;;;;;;38.67;25.42;;;;;;;-146.18;100.00;67994.34;10344961;27;20044;-67
2024/03/02 00:56:34;;;;;;;38.90;25.25;;;;;;;-146.18;100.00;67994.34;10359733;27;20039;-67
2024/03/02 01:01:31;;;;;;;36.97;25.60;;;;;;;-146.18;100.00;67994.34;10358851;27;20040;-68
2024/03/02 01:06:28;;;;;;;41.63;28.10;;;;;;;-146.18;100.00;67994.34;10354168;27;20131;-69
2024/03/02 01:11:24;;;;;;;43.58;27.45;;;;;;;-146.18;100.00;67994.34;10365184;27;20072;-68
2024/03/02 01:16:21;;;;;;;47.80;29.10;;;;;;;-146.18;100.00;67994.34;10356562;28;20519;-67
2024/03/02 01:21:18;;;;;;;40.00;26.70;;;;;;;-146.18;100.00;67994.34;10358309;27;20048;-69
2024/03/02 01:26:14;;;;;;;45.40;28.77;;;;;;;-146.18;100.00;67994.34;10351664;27;20463;-71
2024/03/02 01:31:11;;;;;;;39.72;26.58;;;;;;;-146.18;100.00;67994.34;10352204;27;20051;-71
2024/03/02 01:36:08;;;;;;;38.10;26.42;;;;;;;-146.18;100.00;67994.34;10338963;27;20044;-71
2024/03/02 01:41:05;;;;;;;40.60;27.40;;;;;;;-146.18;100.00;67994.34;10357563;27;20457;-69
2024/03/02 01:46:01;;;;;;;43.08;29.30;;;;;;;-146.18;100.00;67994.34;10362082;27;20678;-69
2024/03/02 01:50:58;;;;;;;45.05;27.45;;;;;;;-146.18;100.00;67994.34;10348320;28;20072;-70
2024/03/02 01:55:54;;;;;;;45.80;28.13;;;;;;;-146.18;100.00;67994.34;10352921;27;20048;-72
2024/03/02 02:00:51;;;;;;;42.88;28.45;;;;;;;-146.18;100.00;67994.34;10352545;27;20052;-70
2024/03/02 02:05:47;;;;;;;48.88;29.42;;;;;;;-146.18;100.00;67994.34;10358985;27;20075;-70
2024/03/02 02:10:44;;;;;;;44.45;28.52;;;;;;;-146.18;100.00;67994.34;10353263;27;20112;-71
2024/03/02 02:15:41;;;;;;;42.70;28.63;;;;;;;-146.18;100.00;67994.34;10353803;27;20063;-70
2024/03/02 02:20:37;;;;;;;39.80;29.13;;;;;;;-146.18;100.00;67994.34;10349023;28;20071;-70
2024/03/02 02:25:34;;;;;;;42.90;29.10;;;;;;;-146.18;100.00;67994.34;10353281;27;20044;-70
2024/03/02 02:30:32;;;;;;;46.40;30.05;;;;;;;-146.18;100.00;67994.34;10359428;27;20051;-68
2024/03/02 02:35:29;;;;;;;47.58;29.52;;;;;;;-146.18;100.00;67994.34;10355169;27;20040;-69
2024/03/02 02:40:26;;;;;;;46.28;30.77;;;;;;;-146.18;100.00;67994.34;10345682;27;20462;-68
2024/03/02 02:45:22;;;;;;;47.00;30.73;;;;;;;-146.18;100.00;67994.34;10361821;27;20692;-68
2024/03/02 02:50:18;;;;;;;56.35;29.67;;;;;;;-146.18;100.00;67994.34;10350045;27;20044;-68
2024/03/02 02:55:15;;;;;;;41.92;27.98;;;;;;;-146.18;100.00;67994.34;10340941;27;20056;-69
2024/03/02 03:00:14;;;;;;;40.55;28.83;;;;;;;-146.18;100.00;67994.34;10350284;27;20048;-68
2024/03/02 03:05:13;;;;;;;41.85;28.30;;;;;;;-146.18;100.00;67994.34;10353500;27;20069;-70
2024/03/02 03:10:10;;;;;;;39.53;27.80;;;;;;;-146.18;100.00;67994.34;10353457;27;20055;-70
2024/03/02 03:15:08;;;;;;;39.08;27.15;;;;;;;-146.18;100.00;67994.34;10345741;27;20418;-69
2024/03/02 03:20:05;;;;;;;39.10;27.70;;;;;;;-146.18;100.00;67994.34;10349567;27;20500;-71
2024/03/02 03:25:03;;;;;;;37.42;27.20;;;;;;;-146.18;100.00;67994.34;10350021;28;20035;-71
2024/03/02 03:30:00;;;;;;;43.03;28.65;;;;;;;-146.18;100.00;67994.34;10353668;28;20040;-71
2024/03/02 03:34:56;;;;;;;39.50;27.67;;;;;;;-146.18;100.00;67994.34;10363081;27;20039;-71
2024/03/02 03:39:53;;;;;;;43.97;27.55;;;;;;;-146.18;100.00;67994.34;10342977;27;20621;-72
2024/03/02 03:44:50;;;;;;;38.92;27.15;;;;;;;-146.18;100.00;67994.34;10346094;27;20521;-70
2024/03/02 03:49:46;;;;;;;37.08;26.92;;;;;;;-146.18;100.00;67994.34;10348472;27;20044;-70
2024/03/02 03:54:44;;;;;;;36.70;26.70;;;;;;;-146.18;100.00;67994.34;10344188;27;20044;-70
2024/03/02 03:59:41;;;;;;;41.20;27.25;;;;;;;-146.18;100.00;67994.34;10349251;28;20048;-70
2024/03/02 04:04:37;;;;;;;37.97;27.02;;;;;;;-146.18;100.00;67994.34;10352288;27;20041;-71
2024/03/02 04:09:34;;;;;;;40.05;26.00;;;;;;;-146.18;100.00;67994.34;10343642;28;20538;-69
2024/03/02 04:14:30;;;;;;;34.90;26.17;;;;;;;-146.18;100.00;67994.34;10345599;27;20044;-70
2024/03/02 04:19:27;;;;;;;40.90;26.77;;;;;;;-146.18;100.00;67994.34;10348354;27;20169;-69
2024/03/02 04:24:23;;;;;;;38.95;27.50;;;;;;;-146.18;100.00;67994.34;10350644;27;20044;-69
2024/03/02 04:29:20;;;;;;;37.03;25.13;;;;;;;-146.18;100.00;67994.34;10356118;27;20044;-68
2024/03/02 04:34:16;;;;;;;35.92;25.45;;;;;;;-146.18;100.00;67994.34;10354963;28;20044;-71
2024/03/02 04:39:12;;;;;;;38.63;25.42;;;;;;;-146.18;100.00;67994.34;10356083;27;20109;-72
2024/03/02 04:44:09;;;;;;;37.33;24.40;;;;;;;-146.18;100.00;67994.34;10360821;27;20047;-71
2024/03/02 04:49:05;;;;;;;40.25;27.33;;;;;;;-146.18;100.00;67994.34;10354352;27;20053;-70
2024/03/02 04:54:02;;;;;;;34.25;25.02;;;;;;;-146.18;100.00;67994.34;10354885;27;20088;-70
2024/03/02 04:58:58;;;;;;;34.75;25.27;;;;;;;-146.18;100.00;67994.34;10357538;27;20079;-70
2024/03/02 05:03:56;;;;;;;39.78;26.65;;;;;;;-146.18;100.00;67994.34;10358078;27;20040;-73
2024/03/02 05:08:53;;;;;;;33.70;25.83;;;;;;;-146.18;100.00;67994.34;10360641;27;20071;-70
2024/03/02 05:13:49;;;;;;;35.67;25.27;;;;;;;-146.18;100.00;67994.34;10353871;27;20113;-68
2024/03/02 05:18:46;;;;;;;39.92;26.17;;;;;;;-146.18;100.00;67994.34;10348645;27;20059;-68
2024/03/02 05:23:42;;;;;;;38.40;25.90;;;;;;;-146.18;100.00;67994.34;10353686;27;20059;-69
2024/03/02 05:28:39;;;;;;;38.67;25.85;;;;;;;-146.18;100.00;67994.34;10359153;28;20098;-69
2024/03/02 05:33:37;;;;;;;38.80;25.92;;;;;;;-146.18;100.00;67994.34;10364599;27;20052;-71
2024/03/02 05:38:34;;;;;;;38.72;26.15;;;;;;;-146.18;100.00;67994.34;10355423;27;20044;-70
2024/03/02 05:43:31;;;;;;;38.42;25.52;;;;;;;-146.18;100.00;67994.34;10341573;27;20504;-70
2024/03/02 05:48:27;;;;;;;35.50;25.48;;;;;;;-146.18;100.00;67994.34;10342281;28;20033;-70
2024/03/02 05:53:24;;;;;;;38.03;25.42;;;;;;;-146.18;100.00;67994.34;10360354;27;20052;-71
2024/03/02 06:03:52;;;;;;;39.05;24.90;;;;;;;-146.18;100.00;67994.34;10295695;28;20048;-71
2024/03/02 06:08:48;;;;;;;33.72;24.25;;;;;;;-146.18;100.00;67994.34;10346909;27;20139;-70
2024/03/02 06:13:45;;;;;;;35.35;25.50;;;;;;;-146.18;100.00;67994.34;10348175;27;20312;-70
2024/03/02 06:18:42;;;;;;;34.83;24.00;;;;;;;-146.18;100.00;67994.34;10352983;27;20043;-70
2024/03/02 06:23:38;;;;;;;33.58;24.02;;;;;;;-146.18;100.00;67994.34;10350462;27;20070;-71
2024/03/02 06:28:35;;;;;;;32.35;23.73;;;;;;;-146.18;100.00;67994.34;10346329;27;20047;-71
2024/03/02 06:33:31;;;;;;;36.78;24.95;;;;;;;-146.18;100.00;67994.34;10349821;28;20093;-70
2024/03/02 06:38:28;;;;;;;29.60;24.20;;;;;;;-146.18;100.00;67994.34;10349376;27;20087;-71
2024/03/02 06:43:24;;;;;;;38.33;25.23;;;;;;;-146.18;100.00;67994.34;10349972;28;20504;-71
2024/03/02 06:48:21;;;;;;;31.42;23.95;;;;;;;-146.18;100.00;67994.34;10347218;27;20090;-71
2024/03/02 06:53:19;;;;;;;32.92;24.23;;;;;;;-146.18;100.00;67994.34;10350082;27;20070;-71
2024/03/02 06:58:15;;;;;;;36.88;24.80;;;;;;;-146.18;100.00;67994.34;10346440;27;20043;-72
2024/03/02 07:03:12;;;;;;;33.30;23.88;;;;;;;-146.18;100.00;67994.34;10344692;27;20044;-71
2024/03/02 07:08:09;;;;;;;31.42;23.90;;;;;;;-146.18;100.00;67994.34;10352525;28;20044;-71
2024/03/02 07:13:05;;;;;;;35.00;24.95;;;;;;;-146.18;100.00;67994.34;10340237;27;20040;-71
2024/03/02 07:18:02;;;;;;;29.83;22.88;;;;;;;-146.18;100.00;67994.34;10344536;27;20055;-71
2024/03/02 07:22:58;;;;;;;31.08;22.25;;;;;;;-146.18;100.00;67994.34;10351889;27;20044;-71
2024/03/02 07:27:55;;;;;;;33.38;23.05;;;;;;;-146.18;100.00;67994.34;10348589;27;20051;-74
2024/03/02 07:32:52;;;;;;;29.63;22.42;;;;;;;-146.18;100.00;67994.34;10345351;27;20487;-71
2024/03/02 07:37:48;;;;;;;30.45;22.17;;;;;;;-146.18;100.00;67994.34;10347341;27;20135;-72
2024/03/02 07:42:45;;;;;;;33.50;22.30;;;;;;;-146.18;100.00;67994.34;10348742;27;20213;-71
2024/03/02 07:47:42;;;;;;;33.65;22.83;;;;;;;-146.18;100.00;67994.34;10336790;27;20037;-71
2024/03/02 07:52:38;;;;;;;30.83;23.15;;;;;;;-146.18;100.00;67994.34;10349007;27;20431;-71
2024/03/02 07:57:34;;;;;;;31.05;22.23;;;;;;;-146.18;100.00;67994.34;10346875;28;20359;-73
2024/03/02 08:02:31;;;;;;;33.45;23.75;;;;;;;-146.18;100.00;67994.34;10344604;27;20048;-72
2024/03/02 08:07:27;;;;;;;35.28;23.27;;;;;;;-146.18;100.00;67994.34;10342742;27;20067;-73
2024/03/02 08:12:24;;;;;;;31.73;22.40;;;;;;;-146.18;100.00;67994.34;10337267;27;20051;-72
2024/03/02 08:17:20;;;;;;;33.72;24.98;;;;;;;-146.18;100.00;67994.34;10347279;27;20058;-69
2024/03/02 08:22:17;;;;;;;34.67;24.08;;;;;;;-146.18;100.00;67994.34;10342735;28;20126;-70
2024/03/02 08:27:14;;;;;;;37.20;23.45;;;;;;;-146.18;100.00;67994.34;10337691;27;20408;-70
2024/03/02 08:32:11;;;;;;;33.75;22.75;;;;;;;-146.18;100.00;67994.34;10341277;27;20043;-70
2024/03/02 08:37:08;;;;;;;33.50;24.58;;;;;;;-146.18;100.00;67994.34;10338148;27;20048;-70
2024/03/02 08:42:04;;;;;;;36.97;24.88;;;;;;;-146.18;100.00;67994.34;10337048;27;20040;-72
2024/03/02 08:47:01;;;;;;;35.72;25.27;;;;;;;-146.18;100.00;67994.34;10330302;27;20090;-72
2024/03/02 08:51:57;;;;;;;36.30;25.05;;;;;;;-146.18;100.00;67994.34;10340500;27;20040;-72
2024/03/02 08:56:54;;;;;;;37.42;25.17;;;;;;;-146.18;100.00;67994.34;10350458;27;20058;-72
2024/03/02 09:01:50;;;;;;;33.15;21.45;;;;;;;-146.18;100.00;67994.34;10340624;27;20052;-72
2024/03/02 09:06:47;;;;;;;36.47;23.63;;;;;;;-146.18;100.00;67994.34;10344337;27;20048;-70
2024/03/02 09:11:46;;;;;;;34.17;23.02;;;;;;;-146.18;100.00;67994.34;10350118;27;20198;-71
2024/03/02 09:16:42;;;;;;;32.85;23.30;;;;;;;-146.18;100.00;67994.34;10358322;27;20052;-70
2024/03/02 09:21:39;;;;;;;31.77;22.63;;;;;;;-146.18;100.00;67994.34;10345004;27;20050;-72
2024/03/02 09:26:35;;;;;;;28.17;21.27;;;;;;;-146.18;100.00;67994.34;10352211;27;20048;-71
2024/03/02 09:31:32;;;;;;;32.80;23.35;;;;;;;-146.18;100.00;67994.34;10339979;27;20082;-71
2024/03/02 09:36:28;;;;;;;29.73;20.75;;;;;;;-146.18;100.00;67994.34;10352840;27;20538;-71
2024/03/02 09:41:25;;;;;;;31.90;22.40;;;;;;;-146.18;100.00;67994.34;10348718;27;20550;-71
2024/03/02 09:46:22;;;;;;;28.55;21.92;;;;;;;-146.18;100.00;67994.34;10361999;27;20043;-71
2024/03/02 09:51:19;;;;;;;32.22;21.42;;;;;;;-146.18;100.00;67994.34;10351421;28;20051;-71
2024/03/02 09:56:18;;;;;;;28.10;20.63;;;;;;;-146.18;100.00;67994.34;10353315;27;20058;-71
2024/03/02 10:01:14;;;;;;;24.88;18.98;;;;;;;-146.18;100.00;67994.34;10355713;27;20047;-72
2024/03/02 10:06:24;;;;;;;27.00;18.85;;;;;;;-146.18;100.00;67994.34;10350356;27;20139;-72
2024/03/02 10:11:32;;;;;;;29.60;19.65;;;;;;;-146.18;100.00;67994.34;10321719;27;20154;-72
2024/03/02 10:16:29;;;;;;;23.55;17.48;;;;;;;-146.18;100.00;67994.34;10350333;27;20043;-72
2024/03/02 10:21:25;;;;;;;25.10;19.08;;;;;;;-146.18;100.00;67994.34;10359291;27;20048;-72
2024/03/02 10:26:22;;;;;;;20.48;17.27;;;;;;;-146.18;100.00;67994.34;10353994;27;20090;-72
2024/03/02 10:31:19;;;;;;;25.40;17.58;;;;;;;-146.18;100.00;67994.34;10344602;28;20475;-72
2024/03/02 10:36:16;;;;;;;22.55;16.85;;;;;;;-146.18;100.00;67994.34;10348634;27;20460;-70
2024/03/02 10:41:16;;;;;;;22.77;16.45;;;;;;;-146.18;100.00;67994.34;10343321;27;20097;-70
2024/03/02 10:46:16;;;;;;;24.40;16.77;;;;;;;-146.18;100.00;67994.34;10342376;28;20048;-71
2024/03/02 10:51:13;;;;;;;20.67;16.80;;;;;;;-146.18;100.00;67994.34;10339648;27;20667;-70
2024/03/02 10:56:15;;;;;;;19.67;15.70;;;;;;;-146.18;100.00;67994.34;10351928;27;20052;-70
2024/03/02 11:01:13;;;;;;;23.30;14.95;;;;;;;-146.18;100.00;67994.34;10353081;27;20040;-71
2024/03/02 11:06:11;;;;;;;18.63;14.38;;;;;;;-146.18;100.00;67994.34;10353433;27;20504;-71
2024/03/02 11:11:15;;;;;;;16.23;12.85;;;;;;;-146.18;100.00;67994.34;10346719;28;20534;-71
2024/03/02 11:16:30;;;;;;;19.33;12.63;;;;;;;-146.18;100.00;67994.34;10336168;28;20052;-71
2024/03/02 11:21:27;;;;;;;16.50;11.93;;;;;;;-146.18;100.00;67994.34;10354833;27;20362;-70
2024/03/02 11:26:24;;;;;;;14.20;11.32;;;;;;;-146.18;100.00;67994.34;10349574;27;20119;-72
2024/03/02 11:31:21;;;;;;;15.60;11.02;;;;;;;-146.18;100.00;67994.34;10348389;27;20048;-70
2024/03/02 11:36:18;;;;;;;13.75;11.75;;;;;;;-146.18;100.00;67994.34;10346833;28;20484;-72
2024/03/02 11:41:14;;;;;;;13.32;10.52;;;;;;;-146.18;100.00;67994.34;10356588;27;20048;-72
2024/03/02 11:46:11;;;;;;;13.85;10.82;;;;;;;-146.18;100.00;67994.34;10349572;27;20323;-72
2024/03/02 11:51:08;;;;;;;13.80;10.70;;;;;;;-146.18;100.00;67994.34;10348535;27;20038;-72
2024/03/02 11:56:09;;;;;;;12.82;11.18;;;;;;;-146.18;100.00;67994.34;10340179;28;20067;-71
2024/03/02 12:01:06;;;;;;;14.10;10.20;;;;;;;-146.18;100.00;67994.34;10347053;27;20070;-72
2024/03/02 12:06:02;;;;;;;14.63;10.25;;;;;;;-146.18;100.00;67994.34;10340017;27;20044;-70
2024/03/02 12:11:01;;;;;;;13.30;10.85;;;;;;;-146.18;100.00;67994.34;10345274;27;20052;-70
2024/03/02 12:15:59;;;;;;;12.90;11.50;;;;;;;-146.18;100.00;67994.34;10354791;27;20047;-71
2024/03/02 12:20:57;;;;;;;17.08;11.82;;;;;;;-146.18;100.00;67994.34;10351249;27;20044;-72
2024/03/02 12:25:55;;;;;;;14.95;12.32;;;;;;;-146.18;100.00;67994.34;10342029;28;20491;-72
2024/03/02 12:30:51;;;;;;;15.27;12.65;;;;;;;-146.18;100.00;67994.34;10343612;27;20052;-72
2024/03/02 12:35:49;;;;;;;13.20;11.73;;;;;;;-146.18;100.00;67994.34;10353129;27;20142;-73
2024/03/02 12:40:49;;;;;;;15.07;11.82;;;;;;;-146.18;100.00;67994.34;10358611;27;20514;-72
2024/03/02 12:45:45;;;;;;;14.98;11.88;;;;;;;-146.18;100.00;67994.34;10346228;27;20078;-71
2024/03/02 12:50:43;;;;;;;14.15;11.27;;;;;;;-146.18;100.00;67994.34;10349325;28;20637;-72
2024/03/02 12:55:41;;;;;;;13.75;11.40;;;;;;;-146.18;100.00;67994.34;10351887;27;20109;-72
2024/03/02 13:00:37;;;;;;;15.48;12.18;;;;;;;-146.18;100.00;67994.34;10361907;28;20048;-72
2024/03/02 13:05:35;;;;;;;15.25;12.63;;;;;;;-146.18;100.00;67994.34;10357322;27;20040;-69
2024/03/02 13:10:31;;;;;;;17.58;12.95;;;;;;;-146.18;100.00;67994.34;10352310;27;20036;-71
2024/03/02 13:15:28;;;;;;;14.82;12.60;;;;;;;-146.18;100.00;67994.34;10363520;27;20097;-72
2024/03/02 13:20:31;;;;;;;18.85;13.45;;;;;;;-146.18;100.00;67994.34;10353806;27;20063;-71
2024/03/02 13:25:27;;;;;;;15.57;12.63;;;;;;;-146.18;100.00;67994.34;10351408;27;20044;-72
2024/03/02 13:30:26;;;;;;;14.80;11.73;;;;;;;-146.18;100.00;67994.34;10351475;27;20384;-72
2024/03/02 13:35:22;;;;;;;15.07;12.60;;;;;;;-146.18;100.00;67994.34;10356363;27;20615;-73
2024/03/02 13:40:20;;;;;;;16.88;12.18;;;;;;;-146.18;100.00;67994.34;10355388;27;20059;-71
2024/03/02 13:45:17;;;;;;;18.50;12.18;;;;;;;-146.18;100.00;67994.34;10357536;27;20079;-72
2024/03/02 13:50:14;;;;;;;14.68;12.63;;;;;;;-146.18;100.00;67994.34;10350008;28;20045;-72
2024/03/02 13:55:10;;;;;;;15.05;12.07;;;;;;;-146.18;100.00;67994.34;10355765;27;20048;-72
2024/03/02 14:00:10;;;;;;;18.77;13.63;;;;;;;-146.18;100.00;67994.34;10355990;27;20044;-72
2024/03/02 14:05:10;;;;;;;15.32;12.30;;;;;;;-146.18;100.00;67994.34;10363425;27;20575;-72
2024/03/02 14:10:08;;;;;;;19.17;13.45;;;;;;;-146.18;100.00;67994.34;10358603;27;20044;-72
2024/03/02 14:15:05;;;;;;;16.02;11.70;;;;;;;-146.18;100.00;67994.34;10349014;28;20054;-72
2024/03/02 14:20:01;;;;;;;14.23;11.82;;;;;;;-146.18;100.00;67994.34;10347999;28;20071;-72
2024/03/02 14:24:58;;;;;;;16.70;11.43;;;;;;;-146.18;100.00;67994.34;10340353;28;20053;-71
2024/03/02 14:29:55;;;;;;;16.10;10.68;;;;;;;-146.18;100.00;67994.34;10342390;27;20093;-71
2024/03/02 14:34:51;;;;;;;12.95;10.68;;;;;;;-146.18;100.00;67994.34;10343878;27;20052;-71
2024/03/02 14:39:48;;;;;;;15.43;10.60;;;;;;;-146.18;100.00;67994.34;10347055;27;20591;-71
2024/03/02 14:44:44;;;;;;;13.00;10.05;;;;;;;-146.18;100.00;67994.34;10345656;27;20043;-71
2024/03/02 14:49:42;;;;;;;13.38;9.90;;;;;;;-146.18;100.00;67994.34;10352832;27;20093;-71
2024/03/02 14:54:39;;;;;;;12.80;9.55;;;;;;;-146.18;100.00;67994.34;10355225;28;20115;-71
2024/03/02 14:59:36;;;;;;;11.07;9.30;;;;;;;-146.18;100.00;67994.34;10350230;28;20040;-71
2024/03/02 15:04:32;;;;;;;13.95;11.63;;;;;;;-146.18;100.00;67994.34;10344924;27;20047;-71
2024/03/02 15:09:28;;;;;;;17.55;11.20;;;;;;;-146.18;100.00;67994.34;10337453;27;20043;-71
2024/03/02 15:14:25;;;;;;;17.40;11.27;;;;;;;-146.18;100.00;67994.34;10336390;27;20052;-71
2024/03/02 15:19:21;;;;;;;14.77;11.05;;;;;;;-146.18;100.00;67994.34;10349400;27;20032;-71
2024/03/02 15:24:18;;;;;;;13.70;10.35;;;;;;;-146.18;100.00;67994.34;10345745;27;20040;-71
2024/03/02 15:29:14;;;;;;;20.40;11.45;;;;;;;-146.18;100.00;67994.34;10346801;27;20040;-70
2024/03/02 15:34:11;;;;;;;16.83;11.73;;;;;;;-146.18;100.00;67994.34;10342896;27;20670;-71
2024/03/02 15:39:08;;;;;;;18.95;11.63;;;;;;;-146.18;100.00;67994.34;10354150;27;20572;-71
2024/03/02 15:44:05;;;;;;;17.45;11.88;;;;;;;-146.18;100.00;67994.34;10338638;27;20056;-71
2024/03/02 15:49:02;;;;;;;13.45;10.30;;;;;;;-146.18;100.00;67994.34;10349697;27;20065;-70
2024/03/02 15:53:59;;;;;;;15.95;10.27;;;;;;;-146.18;100.00;67994.34;10336823;28;20040;-71
2024/03/02 15:58:55;;;;;;;15.77;11.40;;;;;;;-146.18;100.00;67994.34;10342067;27;20097;-70
2024/03/02 16:03:52;;;;;;;14.90;10.48;;;;;;;-146.18;100.00;67994.34;10346625;27;20052;-70
2024/03/02 16:08:48;;;;;;;15.48;11.18;;;;;;;-146.18;100.00;67994.34;10352889;27;20109;-70
2024/03/02 16:13:45;;;;;;;17.42;9.85;;;;;;;-146.18;100.00;67994.34;10350489;27;20489;-71
2024/03/02 16:18:41;;;;;;;13.63;10.05;;;;;;;-146.18;100.00;67994.34;10354981;27;20033;-70
2024/03/02 16:23:38;;;;;;;14.90;10.63;;;;;;;-146.18;100.00;67994.34;10339065;27;20047;-70
2024/03/02 16:28:34;;;;;;;13.23;10.30;;;;;;;-146.18;100.00;67994.34;10348096;27;20504;-70
2024/03/02 16:33:31;;;;;;;14.10;10.45;;;;;;;-146.18;100.00;67994.34;10340313;27;20048;-70
2024/03/02 16:38:27;;;;;;;13.30;9.52;;;;;;;-146.18;100.00;67994.34;10334296;27;20109;-71
2024/03/02 16:43:24;;;;;;;12.75;10.20;;;;;;;-146.18;100.00;67994.34;10348816;27;20401;-71
2024/03/02 16:48:20;;;;;;;14.98;10.15;;;;;;;-146.18;100.00;67994.34;10349301;27;20051;-70
2024/03/02 16:53:17;;;;;;;14.57;9.98;;;;;;;-146.18;100.00;67994.34;10330319;28;20070;-71
2024/03/02 16:58:14;;;;;;;15.77;11.35;;;;;;;-146.18;100.00;67994.34;10339940;27;20059;-70
2024/03/02 17:03:11;;;;;;;15.45;10.80;;;;;;;-146.18;100.00;67994.34;10345516;27;20044;-69
2024/03/02 17:08:07;;;;;;;14.77;11.60;;;;;;;-146.18;100.00;67994.34;10341083;27;20059;-70
2024/03/02 17:13:04;;;;;;;14.88;11.88;;;;;;;-146.18;100.00;67994.34;10339234;27;20044;-71
2024/03/02 17:18:00;;;;;;;14.48;12.60;;;;;;;-146.18;100.00;67994.34;10340088;27;20094;-70
2024/03/02 17:22:57;;;;;;;14.48;12.73;;;;;;;-146.18;100.00;67994.34;10331942;28;20135;-70
2024/03/02 17:28:23;;;;;;;13.82;11.73;;;;;;;-146.18;100.00;67994.34;10344068;27;20060;-71
2024/03/02 17:33:20;;;;;;;15.38;11.95;;;;;;;-146.18;100.00;67994.34;10346779;27;20036;-71
2024/03/02 17:38:17;;;;;;;18.77;12.77;;;;;;;-146.18;100.00;67994.34;10344249;27;20166;-70
2024/03/02 17:43:14;;;;;;;17.17;14.13;;;;;;;-146.18;100.00;67994.34;10361123;27;20052;-71
2024/03/02 17:48:11;;;;;;;14.40;12.15;;;;;;;-146.18;100.00;67994.34;10345703;27;20051;-71
2024/03/02 17:53:08;;;;;;;19.05;14.13;;;;;;;-146.18;100.00;67994.34;10355902;27;20048;-71
2024/03/02 17:58:05;;;;;;;18.73;14.90;;;;;;;-146.18;100.00;67994.34;10352800;27;20044;-71
2024/03/02 18:03:01;;;;;;;18.13;15.13;;;;;;;-146.18;100.00;67994.34;10354950;27;20048;-71
2024/03/02 18:07:58;;;;;;;16.98;15.18;;;;;;;-146.18;100.00;67994.34;10347809;27;20075;-71
2024/03/02 18:12:55;;;;;;;19.58;17.13;;;;;;;-146.18;100.00;67994.34;10352952;27;20656;-71
2024/03/02 18:17:52;;;;;;;22.38;16.45;;;;;;;-146.18;100.00;67994.34;10346218;27;20048;-71
2024/03/02 18:22:48;;;;;;;23.70;18.63;;;;;;;-146.18;100.00;67994.34;10352293;27;20131;-69
2024/03/02 18:27:45;;;;;;;22.45;18.00;;;;;;;-146.18;100.00;67994.34;10351039;27;20044;-70
2024/03/02 18:32:42;;;;;;;22.80;18.95;;;;;;;-146.18;100.00;67994.34;10341190;27;20496;-70
2024/03/02 18:37:39;;;;;;;23.38;19.20;;;;;;;-146.18;100.00;67994.34;10347388;27;20426;-71
2024/03/02 18:42:35;;;;;;;25.05;20.77;;;;;;;-146.18;100.00;67994.34;10342466;27;20123;-71
2024/03/02 18:47:34;;;;;;;22.65;19.98;;;;;;;-146.18;100.00;67994.34;10344337;27;20043;-70
2024/03/02 18:52:34;;;;;;;22.92;20.20;;;;;;;-146.18;100.00;67994.34;10340136;27;20043;-71
2024/03/02 18:57:32;;;;;;;32.75;21.38;;;;;;;-146.18;100.00;67994.34;10335577;27;20037;-71
2024/03/02 19:02:28;;;;;;;26.30;20.45;;;;;;;-146.18;100.00;67994.34;10333923;28;20048;-71
2024/03/02 19:07:25;;;;;;;24.27;20.75;;;;;;;-146.18;100.00;67994.34;10342557;27;20048;-71
2024/03/02 19:12:23;;;;;;;26.77;21.50;;;;;;;-146.18;100.00;67994.34;10349710;27;20465;-71
2024/03/02 19:17:19;;;;;;;29.50;23.13;;;;;;;-146.18;100.00;67994.34;10343751;27;20051;-71
2024/03/02 19:22:16;;;;;;;27.95;22.35;;;;;;;-146.18;100.00;67994.34;10342990;27;20535;-70
2024/03/02 19:27:13;;;;;;;29.35;23.58;;;;;;;-146.18;100.00;67994.34;10336329;27;20047;-72
2024/03/02 19:32:09;;;;;;;29.00;24.10;;;;;;;-146.18;100.00;67994.34;10350204;27;20032;-70
2024/03/02 19:37:10;;;;;;;26.25;22.52;;;;;;;-146.18;100.00;67994.34;10342124;27;20036;-70
2024/03/02 19:42:07;;;;;;;25.83;22.90;;;;;;;-146.18;100.00;67994.34;10339693;27;20522;-70
2024/03/02 19:47:03;;;;;;;31.38;24.20;;;;;;;-146.18;100.00;67994.34;10343863;27;20040;-70
2024/03/02 19:51:59;;;;;;;33.40;24.92;;;;;;;-146.18;100.00;67994.34;10337715;27;20499;-70
2024/03/02 19:56:56;;;;;;;30.50;26.63;;;;;;;-146.18;100.00;67994.34;10341692;28;20041;-70
2024/03/02 20:01:53;;;;;;;31.70;24.83;;;;;;;-146.18;100.00;67994.34;10335897;27;20056;-71
2024/03/02 20:06:53;;;;;;;33.42;25.23;;;;;;;-146.18;100.00;67994.34;10347950;27;20071;-69
2024/03/02 20:11:50;;;;;;;32.25;26.65;;;;;;;-146.18;100.00;67994.34;10355747;27;20055;-70
2024/03/02 20:16:47;;;;;;;32.80;25.77;;;;;;;-146.18;100.00;67994.34;10351696;27;20071;-70
2024/03/02 20:21:44;;;;;;;29.08;25.92;;;;;;;-146.18;100.00;67994.34;10344792;27;20036;-71
2024/03/02 20:26:40;;;;;;;28.30;25.05;;;;;;;-146.18;100.00;67994.34;10341864;28;20135;-71
2024/03/02 20:31:37;;;;;;;30.13;24.50;;;;;;;-146.18;100.00;67994.34;10344316;27;20521;-71
2024/03/02 20:36:33;;;;;;;34.55;25.58;;;;;;;-146.18;100.00;67994.34;10344172;27;20553;-71
2024/03/02 20:41:30;;;;;;;31.45;25.58;;;;;;;-146.18;100.00;67994.34;10348156;27;20067;-72
2024/03/02 20:46:26;;;;;;;29.10;25.58;;;;;;;-146.18;100.00;67994.34;10345324;27;20040;-71
2024/03/02 20:51:28;;;;;;;30.65;25.13;;;;;;;-146.18;100.00;67994.34;10322318;27;20495;-71
2024/03/02 20:56:26;;;;;;;32.40;25.40;;;;;;;-146.18;100.00;67994.34;10339801;27;20051;-71
2024/03/02 21:01:22;;;;;;;27.25;23.08;;;;;;;-146.18;100.00;67994.34;10334385;27;20044;-71
2024/03/02 21:06:19;;;;;;;26.88;23.85;;;;;;;-146.18;100.00;67994.34;10345954;27;20052;-71
2024/03/02 21:11:17;;;;;;;26.85;23.52;;;;;;;-146.18;100.00;67994.34;10350757;27;20071;-70
2024/03/02 21:16:15;;;;;;;37.03;28.10;;;;;;;-146.18;100.00;67994.34;10347932;27;20052;-70
2024/03/02 21:21:12;;;;;;;34.30;24.33;;;;;;;-146.18;100.00;67994.34;10356530;27;20071;-70
2024/03/02 21:26:09;;;;;;;27.58;23.85;;;;;;;-146.18;100.00;67994.34;10349234;27;20093;-70
2024/03/02 21:31:05;;;;;;;25.85;22.90;;;;;;;-146.18;100.00;67994.34;10350444;27;20696;-71
2024/03/02 21:36:03;;;;;;;25.52;22.88;;;;;;;-146.18;100.00;67994.34;10353551;27;20044;-71
2024/03/02 21:41:01;;;;;;;28.23;22.75;;;;;;;-146.18;100.00;67994.34;10360913;27;20048;-71
2024/03/02 21:45:57;;;;;;;26.30;22.88;;;;;;;-146.18;100.00;67994.34;10350224;27;20058;-71
2024/03/02 21:50:54;;;;;;;27.80;23.33;;;;;;;-146.18;100.00;67994.34;10361284;27;20110;-71